Time;durP1;ratioP1;P1;durP2;ratioP2;P2;SDS_P1;SDS_P2;PMS_P1;PMS_P2;Temp;Humidity;BMP_temperature;BMP_pressure;BME280_temperature;BME280_humidity;BME280_pressure;Samples;Min_cycle;Max_cycle;Signal;HPM_P1;HPM_P2
2021/05/17 00:00:46;;;;;;;9.68;3.55;;;;;;;14.29;92.78;99516.73;1696786;83;20942;-42
2021/05/17 00:03:13;;;;;;;14.78;3.62;;;;;;;14.30;92.86;99505.40;1696705;83;20947;-41
2021/05/17 00:05:41;;;;;;;21.62;4.00;;;;;;;14.32;92.90;99496.20;1712076;82;20966;-42
2021/05/17 00:08:09;;;;;;;10.72;3.10;;;;;;;14.31;92.86;99493.21;1736990;82;21795;-42
2021/05/17 00:10:36;;;;;;;6.65;3.27;;;;;;;14.29;92.91;99499.81;1736895;82;21025;-42
2021/05/17 00:13:03;;;;;;;15.08;2.90;;;;;;;14.31;92.92;99522.70;1737081;82;20918;-42
2021/05/17 00:15:30;;;;;;;12.25;3.22;;;;;;;14.31;93.03;99540.92;1737023;82;20950;-42
2021/05/17 00:17:57;;;;;;;8.73;3.60;;;;;;;14.31;93.14;99564.34;1737143;82;20978;-42
2021/05/17 00:20:25;;;;;;;4.17;2.70;;;;;;;14.32;93.30;99590.77;1696715;84;21054;-42
2021/05/17 00:22:53;;;;;;;5.25;3.20;;;;;;;14.35;93.29;99608.84;1696636;83;21007;-42
2021/05/17 00:25:24;;;;;;;13.03;3.42;;;;;;;14.37;93.40;99592.69;1696797;84;20991;-42
2021/05/17 00:27:52;;;;;;;12.78;3.52;;;;;;;14.35;93.25;99546.36;1696767;83;21038;-42
2021/05/17 00:30:21;;;;;;;14.55;4.00;;;;;;;14.34;93.08;99519.95;1696724;84;21062;-41
2021/05/17 00:32:49;;;;;;;4.87;3.02;;;;;;;14.33;93.10;99546.89;1696604;83;20983;-41
2021/05/17 00:35:17;;;;;;;12.45;4.33;;;;;;;14.32;93.07;99567.34;1696906;83;21477;-42
2021/05/17 00:37:45;;;;;;;12.30;4.05;;;;;;;14.30;93.00;99590.00;1696721;83;20963;-41
2021/05/17 00:40:13;;;;;;;11.63;3.30;;;;;;;14.30;93.06;99616.47;1696712;84;21003;-41
2021/05/17 00:42:41;;;;;;;22.40;3.87;;;;;;;14.32;92.96;99627.66;1696666;84;20986;-41
2021/05/17 00:45:12;;;;;;;8.65;3.47;;;;;;;14.33;92.68;99627.59;1712101;82;21037;-42
2021/05/17 00:47:44;;;;;;;8.00;2.90;;;;;;;14.36;92.80;99626.14;1736816;81;22262;-42
2021/05/17 00:50:16;;;;;;;4.75;2.40;;;;;;;14.40;92.52;99600.81;1736801;82;21384;-41
2021/05/17 00:52:45;;;;;;;6.58;2.67;;;;;;;14.41;92.19;99588.19;1696696;83;21006;-41
2021/05/17 00:55:14;;;;;;;6.35;3.10;;;;;;;14.47;91.90;99622.17;1696699;84;20942;-41
2021/05/17 00:57:43;;;;;;;5.50;2.90;;;;;;;14.51;91.57;99632.81;1696618;83;20998;-42
2021/05/17 01:00:14;;;;;;;4.03;2.58;;;;;;;14.50;91.31;99633.73;1696662;84;21091;-41
2021/05/17 01:02:44;;;;;;;4.15;2.62;;;;;;;14.49;91.08;99612.52;1736991;82;20900;-41
2021/05/17 01:05:13;;;;;;;4.12;2.75;;;;;;;14.51;90.91;99615.89;1737033;82;20994;-41
2021/05/17 01:07:47;;;;;;;7.50;2.33;;;;;;;14.55;90.65;99602.28;1736943;82;20966;-41
2021/05/17 01:10:20;;;;;;;4.20;2.40;;;;;;;14.53;90.03;99585.45;1696768;84;21096;-41
2021/05/17 01:12:49;;;;;;;6.55;2.30;;;;;;;14.53;89.87;99564.61;1696731;83;20987;-41
2021/05/17 01:15:18;;;;;;;6.08;1.90;;;;;;;14.54;89.35;99536.35;1696850;83;21632;-41
2021/05/17 01:17:45;;;;;;;3.65;1.62;;;;;;;14.54;89.09;99535.50;1696744;84;20983;-41
2021/05/17 01:20:17;;;;;;;6.87;1.92;;;;;;;14.54;88.88;99542.86;1696790;83;21365;-41
2021/05/17 01:23:43;;;;;;;2.37;1.50;;;;;;;14.62;87.74;99538.10;1736973;82;21679;-41
2021/05/17 01:25:21;;;;;;;9.70;2.05;;;;;;;14.70;87.01;99546.84;1723005;82;20966;-41
2021/05/17 01:27:48;;;;;;;3.67;1.75;;;;;;;14.72;86.66;99539.83;1696685;84;21030;-41
2021/05/17 01:30:16;;;;;;;1.82;1.40;;;;;;;14.71;86.73;99548.56;1696684;83;20916;-41
2021/05/17 01:32:43;;;;;;;3.92;2.00;;;;;;;14.65;86.93;99542.30;1696764;84;20884;-41
2021/05/17 01:35:11;;;;;;;5.58;2.22;;;;;;;14.58;87.10;99527.47;1696744;84;21110;-41
2021/05/17 01:37:39;;;;;;;3.75;1.90;;;;;;;14.56;87.31;99518.89;1696773;84;21019;-41
2021/05/17 01:40:10;;;;;;;8.03;1.80;;;;;;;14.55;87.46;99521.11;1696663;83;20978;-41
2021/05/17 01:42:41;;;;;;;4.05;1.80;;;;;;;14.52;87.54;99513.42;1696630;83;20923;-41
2021/05/17 01:45:10;;;;;;;5.67;1.80;;;;;;;14.52;87.45;99521.23;1696732;84;20994;-41
2021/05/17 01:47:47;;;;;;;6.75;1.90;;;;;;;14.49;87.13;99527.90;1696656;84;21112;-41
2021/05/17 01:50:16;;;;;;;7.10;1.98;;;;;;;14.50;87.00;99545.20;1696542;83;20923;-41
2021/05/17 01:52:45;;;;;;;4.53;1.62;;;;;;;14.49;86.97;99560.45;1699556;83;20994;-41
2021/05/17 01:55:13;;;;;;;2.92;1.57;;;;;;;14.49;86.64;99565.66;1738679;82;21621;-41
2021/05/17 01:57:40;;;;;;;3.50;2.05;;;;;;;14.52;86.51;99557.69;1738776;82;20942;-41
2021/05/17 02:00:10;;;;;;;2.80;1.80;;;;;;;14.53;86.21;99547.69;1700639;84;21104;-41
2021/05/17 02:02:45;;;;;;;4.03;1.92;;;;;;;14.51;86.02;99554.26;1700655;84;20937;-42
2021/05/17 02:07:00;;;;;;;4.20;2.22;;;;;;;14.49;86.10;99542.22;1815364;79;22583;-41
2021/05/17 02:09:31;;;;;;;9.10;2.60;;;;;;;14.39;86.04;99522.77;1788473;80;20966;-41
2021/05/17 02:11:58;;;;;;;7.03;2.55;;;;;;;14.36;85.71;99490.77;1788451;80;21069;-41
2021/05/17 02:14:44;;;;;;;6.63;2.80;;;;;;;14.32;85.52;99483.18;1787605;80;21482;-42
2021/05/17 02:17:12;;;;;;;8.05;3.75;;;;;;;14.28;85.49;99460.83;1788513;80;20961;-41
2021/05/17 02:19:39;;;;;;;6.42;2.95;;;;;;;14.24;85.50;99440.61;1788504;80;20941;-42
2021/05/17 02:22:07;;;;;;;5.35;2.70;;;;;;;14.22;85.73;99465.88;1788456;80;20918;-41
2021/05/17 02:24:36;;;;;;;8.05;2.72;;;;;;;14.19;86.04;99567.53;1788416;80;21103;-42
2021/05/17 02:27:08;;;;;;;17.82;3.12;;;;;;;14.15;86.09;99623.24;1788588;80;20929;-41
2021/05/17 02:29:36;;;;;;;6.12;2.52;;;;;;;14.14;86.27;99699.62;1788151;80;21546;-41
2021/05/17 02:32:05;;;;;;;6.53;2.30;;;;;;;14.14;86.44;99709.56;1788461;80;21562;-41
2021/05/17 02:34:33;;;;;;;7.62;2.80;;;;;;;14.15;86.70;99667.48;1788589;80;21013;-41
2021/05/17 02:37:00;;;;;;;6.03;2.60;;;;;;;14.15;86.79;99671.39;1788456;80;21093;-41
2021/05/17 02:39:27;;;;;;;8.80;2.20;;;;;;;14.13;87.04;99690.13;1788364;80;20957;-41
2021/05/17 02:41:55;;;;;;;4.92;2.20;;;;;;;14.13;87.37;99686.23;1788379;80;20985;-42
2021/05/17 02:44:23;;;;;;;5.78;2.80;;;;;;;14.11;87.54;99634.23;1788402;80;21492;-42
2021/05/17 02:46:53;;;;;;;9.70;2.47;;;;;;;14.04;87.82;99613.33;1788612;80;20942;-42
2021/05/17 02:49:21;;;;;;;15.00;3.35;;;;;;;13.99;88.08;99581.01;1784924;80;21083;-42
2021/05/17 02:51:49;;;;;;;8.48;2.72;;;;;;;13.94;88.45;99553.07;1784920;80;20910;-42
2021/05/17 02:54:24;;;;;;;8.08;2.85;;;;;;;13.82;89.01;99539.34;1784827;80;20961;-42
2021/05/17 02:57:05;;;;;;;7.35;2.60;;;;;;;13.73;89.52;99521.11;1784845;80;21602;-43
2021/05/17 03:00:17;;;;;;;6.60;2.92;;;;;;;13.68;89.98;99507.48;1691732;83;20934;-41
2021/05/17 03:03:08;;;;;;;5.97;2.60;;;;;;;13.66;90.40;99490.64;1723311;83;21706;-43
2021/05/17 03:05:40;;;;;;;11.93;2.85;;;;;;;13.62;90.86;99471.73;1714316;83;20963;-41
2021/05/17 03:08:09;;;;;;;4.78;2.80;;;;;;;13.60;91.10;99442.36;1768415;80;20923;-41
2021/05/17 03:10:40;;;;;;;8.33;3.22;;;;;;;13.60;91.32;99390.83;1768484;81;20963;-41
2021/05/17 03:13:13;;;;;;;7.37;3.02;;;;;;;13.60;91.50;99336.23;1768382;81;20975;-41
2021/05/17 03:15:41;;;;;;;7.50;2.75;;;;;;;13.59;92.02;99252.66;1768338;81;21720;-42
2021/05/17 03:18:08;;;;;;;8.63;2.77;;;;;;;13.56;92.44;99176.94;1767793;81;21023;-41
2021/05/17 03:20:34;;;;;;;8.63;3.22;;;;;;;13.58;93.29;99122.28;1746206;81;20923;-42
2021/05/17 03:23:01;;;;;;;9.35;3.50;;;;;;;13.57;93.88;99090.70;1767820;81;20967;-42
2021/05/17 03:25:32;;;;;;;8.00;3.30;;;;;;;13.60;94.50;99051.55;1701730;84;21014;-43
2021/05/17 03:27:58;;;;;;;6.85;3.08;;;;;;;13.57;94.74;99001.84;1701170;84;21660;-42
2021/05/17 03:30:25;;;;;;;9.73;3.52;;;;;;;13.57;94.87;98999.72;1701818;84;21512;-42
2021/05/17 03:32:52;;;;;;;5.15;2.60;;;;;;;13.63;95.00;98999.38;1701927;84;21002;-42
2021/05/17 03:35:19;;;;;;;8.33;3.12;;;;;;;13.72;94.99;99005.84;1701899;84;21599;-42
2021/05/17 03:37:47;;;;;;;7.92;2.35;;;;;;;13.83;94.84;99009.16;1701947;84;20979;-43
2021/05/17 03:40:15;;;;;;;8.40;2.83;;;;;;;13.90;94.61;99013.94;1701886;84;21089;-43
2021/05/17 03:42:42;;;;;;;6.33;2.60;;;;;;;13.96;94.44;99010.14;1701802;84;21452;-43
2021/05/17 03:45:10;;;;;;;6.30;2.77;;;;;;;14.03;94.20;99014.10;1701872;84;21638;-43
2021/05/17 03:47:37;;;;;;;7.05;2.98;;;;;;;14.07;94.06;99003.04;1701821;84;21004;-43
2021/05/17 03:50:06;;;;;;;5.62;2.77;;;;;;;14.14;93.82;99003.55;1701832;84;20987;-43
2021/05/17 03:52:33;;;;;;;15.00;2.90;;;;;;;14.18;93.68;99012.41;1701827;84;21707;-41
2021/05/17 03:54:59;;;;;;;19.07;3.27;;;;;;;14.26;93.46;99036.66;1701876;84;21608;-41
2021/05/17 03:57:26;;;;;;;14.53;3.17;;;;;;;14.36;93.19;99039.14;1701913;84;21611;-41
2021/05/17 03:59:53;;;;;;;15.23;2.98;;;;;;;14.50;93.01;99064.84;1701881;84;21950;-40
2021/05/17 04:02:21;;;;;;;15.00;2.90;;;;;;;14.67;92.93;99078.22;1767821;81;20871;-41
2021/05/17 04:05:12;;;;;;;25.17;3.60;;;;;;;14.83;92.73;99092.98;1767906;81;21150;-42
2021/05/17 04:07:49;;;;;;;12.93;3.05;;;;;;;15.01;92.59;99106.69;1765131;80;21022;-43
2021/05/17 04:15:21;;;;;;;35.38;4.30;;;;;;;15.49;91.28;99304.20;1702048;84;20987;-43
2021/05/17 04:17:48;;;;;;;37.83;3.92;;;;;;;15.54;90.25;99288.77;1701994;84;21098;-42
2021/05/17 04:20:15;;;;;;;25.25;4.05;;;;;;;15.58;90.06;99223.77;1701737;84;21042;-43
2021/05/17 04:22:42;;;;;;;21.55;4.20;;;;;;;15.61;89.86;99251.80;1701821;84;21635;-41
2021/05/17 04:25:10;;;;;;;8.00;2.92;;;;;;;15.68;89.84;99324.49;1701878;84;21476;-42
2021/05/17 04:27:37;;;;;;;13.60;3.45;;;;;;;15.69;89.45;99318.34;1701790;84;20908;-42
2021/05/17 04:30:06;;;;;;;6.33;2.80;;;;;;;15.65;88.80;99294.20;1701762;84;21168;-44
2021/05/17 04:32:32;;;;;;;4.30;2.67;;;;;;;15.65;88.75;99323.71;1701703;84;21002;-42
2021/05/17 04:34:58;;;;;;;9.88;3.05;;;;;;;15.65;88.73;99333.32;1701766;83;21038;-42
2021/05/17 04:37:25;;;;;;;5.65;2.90;;;;;;;15.60;88.48;99337.97;1701688;84;21002;-42
2021/05/17 04:39:52;;;;;;;8.48;2.62;;;;;;;15.58;88.29;99371.13;1701979;83;21022;-42
2021/05/17 04:42:18;;;;;;;5.75;2.45;;;;;;;15.57;88.30;99385.09;1701839;84;21090;-42
2021/05/17 04:44:45;;;;;;;6.87;3.00;;;;;;;15.60;88.46;99383.61;1767738;81;20935;-42
2021/05/17 04:47:12;;;;;;;7.00;2.20;;;;;;;15.62;88.36;99406.53;1767754;80;20907;-42
2021/05/17 04:49:38;;;;;;;6.87;2.90;;;;;;;15.60;88.10;99430.56;1767869;80;20904;-40
2021/05/17 04:52:05;;;;;;;5.55;2.75;;;;;;;15.59;88.15;99453.66;1767887;81;20979;-43
2021/05/17 04:54:31;;;;;;;10.40;2.65;;;;;;;15.57;88.34;99474.59;1767682;80;21071;-42
2021/05/17 04:56:59;;;;;;;7.00;2.62;;;;;;;15.54;88.22;99491.71;1767870;81;21594;-40
2021/05/17 04:59:25;;;;;;;4.70;2.40;;;;;;;15.53;88.33;99491.34;1701855;84;21516;-41
2021/05/17 05:01:51;;;;;;;9.38;2.92;;;;;;;15.54;88.41;99500.02;1701891;84;20900;-42
2021/05/17 05:04:18;;;;;;;7.30;2.52;;;;;;;15.54;88.55;99490.89;1701683;84;20912;-43
2021/05/17 05:06:45;;;;;;;6.30;2.58;;;;;;;15.55;88.58;99501.70;1701768;84;21681;-42
2021/05/17 05:09:12;;;;;;;4.78;2.90;;;;;;;15.55;88.55;99501.70;1701664;84;20939;-42
2021/05/17 05:11:38;;;;;;;10.05;2.50;;;;;;;15.57;88.64;99516.80;1701842;83;20995;-42
2021/05/17 05:14:05;;;;;;;7.28;2.75;;;;;;;15.59;88.72;99505.82;1701715;84;20915;-42
2021/05/17 05:16:31;;;;;;;6.28;2.92;;;;;;;15.58;88.57;99499.74;1701929;83;21012;-43
2021/05/17 05:18:58;;;;;;;10.68;2.80;;;;;;;15.61;88.68;99489.14;1701745;84;21097;-42
2021/05/17 05:21:26;;;;;;;5.90;2.77;;;;;;;15.62;88.70;99464.73;1701673;84;21086;-42
2021/05/17 05:23:53;;;;;;;5.28;3.10;;;;;;;15.66;88.84;99446.72;1701797;84;20998;-42
2021/05/17 05:29:03;;;;;;;6.92;2.77;;;;;;;15.73;88.79;99409.84;1701857;84;21015;-42
2021/05/17 05:31:25;;;;;;;7.97;2.60;;;;;;;15.79;88.59;99398.60;1700383;84;21397;-41
2021/05/17 05:33:49;;;;;;;5.33;3.02;;;;;;;15.82;88.49;99388.44;1701359;84;20995;-42
2021/05/17 05:36:16;;;;;;;3.95;3.40;;;;;;;15.92;88.64;99389.64;1701671;84;20970;-41
2021/05/17 05:38:42;;;;;;;10.78;3.85;;;;;;;16.01;88.59;99390.02;1701810;84;21105;-41
2021/05/17 05:41:09;;;;;;;5.75;3.25;;;;;;;16.14;88.53;99394.06;1701853;84;20941;-42
2021/05/17 05:43:35;;;;;;;8.95;3.12;;;;;;;16.25;88.54;99400.78;1701864;84;21094;-42
2021/05/17 05:46:02;;;;;;;6.85;3.02;;;;;;;16.35;88.08;99395.41;1701782;84;21576;-42
2021/05/17 05:48:29;;;;;;;6.83;3.02;;;;;;;16.51;87.92;99393.17;1701897;84;21465;-42
2021/05/17 05:50:56;;;;;;;5.05;2.65;;;;;;;16.73;87.60;99397.10;1701684;84;21062;-42
2021/05/17 05:53:22;;;;;;;6.37;3.17;;;;;;;16.97;87.17;99401.75;1701745;84;20923;-42
2021/05/17 05:55:49;;;;;;;4.25;2.87;;;;;;;17.07;86.40;99386.75;1701631;84;21007;-42
2021/05/17 05:58:16;;;;;;;5.03;2.92;;;;;;;17.33;86.15;99379.52;1701529;84;21050;-42
2021/05/17 06:00:43;;;;;;;3.15;2.58;;;;;;;17.60;85.43;99372.95;1701716;84;20951;-42
2021/05/17 06:03:09;;;;;;;7.30;2.87;;;;;;;17.92;84.39;99356.91;1701731;84;20951;-42
2021/05/17 06:05:36;;;;;;;3.33;2.33;;;;;;;18.11;82.74;99333.94;1701774;83;21018;-42
2021/05/17 06:08:04;;;;;;;8.30;2.80;;;;;;;18.34;81.30;99326.66;1701750;84;21133;-42
2021/05/17 06:10:31;;;;;;;3.92;2.58;;;;;;;18.60;79.81;99308.75;1701576;84;20999;-43
2021/05/17 06:12:58;;;;;;;7.40;3.12;;;;;;;18.74;78.77;99288.97;1767835;81;21009;-42
2021/05/17 06:15:26;;;;;;;3.33;2.42;;;;;;;18.76;75.22;99301.95;1767698;81;21014;-42
2021/05/17 06:17:54;;;;;;;7.75;2.62;;;;;;;18.90;74.70;99314.92;1701686;84;21759;-42
2021/05/17 06:20:22;;;;;;;10.35;2.70;;;;;;;19.24;74.81;99324.80;1701720;84;21044;-42
2021/05/17 06:22:50;;;;;;;9.55;2.85;;;;;;;19.58;73.40;99311.81;1701664;84;20999;-42
2021/05/17 06:25:18;;;;;;;10.85;3.67;;;;;;;19.80;72.93;99313.66;1701751;83;21027;-42
2021/05/17 06:27:45;;;;;;;5.60;2.60;;;;;;;20.01;72.69;99309.57;1701642;84;21053;-42
2021/05/17 06:30:14;;;;;;;5.80;2.80;;;;;;;20.24;71.56;99313.05;1701639;84;20939;-42
2021/05/17 06:32:41;;;;;;;13.85;2.65;;;;;;;20.34;70.56;99312.71;1701681;84;21072;-42
2021/05/17 06:35:19;;;;;;;9.60;2.60;;;;;;;20.38;69.97;99315.45;1701532;84;20999;-41
2021/05/17 06:37:38;;;;;;;6.60;2.62;;;;;;;20.44;68.93;99320.69;1765942;81;21081;-42
2021/05/17 06:40:07;;;;;;;9.15;2.90;;;;;;;20.59;68.12;99327.03;1767836;81;21571;-42
2021/05/17 06:42:34;;;;;;;4.42;2.40;;;;;;;20.77;66.90;99329.53;1767720;81;20967;-42
2021/05/17 06:45:03;;;;;;;8.43;2.83;;;;;;;20.92;66.71;99337.17;1701770;84;20896;-42
2021/05/17 06:47:30;;;;;;;9.20;3.33;;;;;;;21.00;66.17;99323.41;1701524;84;20955;-42
2021/05/17 06:49:57;;;;;;;4.78;2.80;;;;;;;20.96;65.87;99309.66;1701858;84;20982;-42
2021/05/17 06:52:25;;;;;;;10.23;2.98;;;;;;;21.04;66.02;99299.84;1701803;84;21046;-42
2021/05/17 06:54:59;;;;;;;8.30;3.00;;;;;;;21.32;65.19;99285.75;1701899;84;20943;-42
2021/05/17 06:57:29;;;;;;;6.78;2.17;;;;;;;21.70;64.81;99279.16;1701256;84;21098;-42
2021/05/17 06:59:58;;;;;;;5.97;2.77;;;;;;;22.02;63.97;99257.64;1700943;83;20927;-43
2021/05/17 07:02:22;;;;;;;8.63;2.47;;;;;;;22.49;63.68;99265.91;1701152;84;21023;-42
2021/05/17 07:04:50;;;;;;;5.28;2.40;;;;;;;22.73;61.57;99292.37;1701781;84;21050;-42
2021/05/17 07:07:33;;;;;;;12.50;2.95;;;;;;;22.58;59.94;99406.61;1701841;84;21552;-42
2021/05/17 07:12:34;;;;;;;11.78;3.35;;;;;;;21.02;61.80;99514.36;1767779;81;20975;-41
2021/05/17 07:15:05;;;;;;;8.23;2.60;;;;;;;19.97;65.92;99521.66;1767918;81;20982;-41
2021/05/17 07:17:30;;;;;;;6.83;2.33;;;;;;;19.22;68.28;99550.47;1767538;81;20891;-41
2021/05/17 07:19:57;;;;;;;14.95;2.85;;;;;;;18.73;70.09;99510.53;1701852;84;20940;-41
2021/05/17 07:25:10;;;;;;;11.53;2.80;;;;;;;18.03;73.09;99525.09;1701809;84;21453;-43
2021/05/17 07:27:37;;;;;;;14.43;3.15;;;;;;;17.76;75.40;99433.47;1767822;81;21595;-44
2021/05/17 07:30:06;;;;;;;12.18;3.25;;;;;;;17.23;78.82;99411.94;1767755;81;21591;-43
2021/05/17 07:32:32;;;;;;;5.72;2.83;;;;;;;16.49;80.96;99453.80;1767910;81;21002;-43
2021/05/17 07:34:58;;;;;;;8.45;3.30;;;;;;;16.09;83.24;99433.02;1767867;81;21054;-42
2021/05/17 07:37:26;;;;;;;10.82;3.58;;;;;;;15.83;84.84;99412.77;1767842;81;21021;-43
2021/05/17 07:39:52;;;;;;;11.48;3.30;;;;;;;15.64;86.19;99427.67;1701874;84;20920;-42
2021/05/17 07:42:18;;;;;;;9.10;3.15;;;;;;;15.55;87.76;99409.94;1701824;83;20912;-42
2021/05/17 07:44:45;;;;;;;7.35;3.17;;;;;;;15.50;88.50;99411.48;1701802;84;21520;-42
2021/05/17 07:47:11;;;;;;;9.33;3.20;;;;;;;15.55;88.85;99415.16;1701678;84;21786;-42
2021/05/17 07:49:53;;;;;;;10.28;3.08;;;;;;;15.67;89.54;99391.45;1701719;84;21524;-42
2021/05/17 07:56:04;;;;;;;9.13;3.20;;;;;;;15.98;90.72;99377.16;1767757;81;20919;-43
2021/05/17 07:58:31;;;;;;;8.38;3.10;;;;;;;16.57;91.31;99366.70;1701828;84;20928;-42
2021/05/17 08:00:58;;;;;;;6.67;2.98;;;;;;;17.03;90.47;99351.28;1701826;84;21095;-43
2021/05/17 08:03:24;;;;;;;4.50;2.87;;;;;;;17.57;90.27;99354.84;1701802;84;20995;-43
2021/05/17 08:05:51;;;;;;;7.00;3.08;;;;;;;18.13;88.99;99354.31;1701817;84;21003;-43
2021/05/17 08:08:17;;;;;;;12.65;2.45;;;;;;;18.69;89.15;99352.64;1701805;84;21003;-42
2021/05/17 08:10:44;;;;;;;5.10;2.60;;;;;;;19.20;87.28;99364.00;1701820;84;21035;-42
2021/05/17 08:13:10;;;;;;;7.60;3.15;;;;;;;19.50;85.80;99373.22;1701733;84;21031;-42
2021/05/17 08:15:38;;;;;;;15.48;2.40;;;;;;;19.62;83.50;99369.68;1701619;84;21022;-42
2021/05/17 08:18:05;;;;;;;7.25;3.05;;;;;;;19.84;80.97;99361.53;1701586;84;20999;-42
2021/05/17 08:20:32;;;;;;;8.53;2.75;;;;;;;20.12;79.71;99362.59;1701767;84;20927;-42
2021/05/17 08:23:00;;;;;;;11.73;2.87;;;;;;;20.55;78.44;99368.97;1767663;81;20971;-42
2021/05/17 08:25:27;;;;;;;10.00;2.83;;;;;;;20.98;75.55;99376.63;1767814;81;21098;-42
2021/05/17 08:27:55;;;;;;;4.75;2.80;;;;;;;21.37;75.97;99375.72;1767709;81;21041;-42
2021/05/17 08:30:24;;;;;;;5.33;2.30;;;;;;;21.48;73.54;99379.61;1767706;81;20884;-42
2021/05/17 08:32:51;;;;;;;3.90;2.42;;;;;;;21.49;73.40;99381.78;1767758;80;21618;-42
2021/05/17 08:35:18;;;;;;;8.15;2.52;;;;;;;21.58;71.90;99377.06;1767926;80;21524;-42
2021/05/17 08:37:44;;;;;;;6.33;2.35;;;;;;;21.77;71.92;99375.09;1767695;81;21437;-42
2021/05/17 08:40:13;;;;;;;11.08;2.50;;;;;;;22.01;71.35;99377.97;1701648;84;20928;-42
2021/05/17 08:42:41;;;;;;;7.67;2.22;;;;;;;22.20;69.25;99374.61;1701817;83;20871;-42
2021/05/17 08:45:09;;;;;;;4.12;2.45;;;;;;;22.38;67.32;99373.55;1681551;84;21026;-42
2021/05/17 08:47:35;;;;;;;4.87;2.62;;;;;;;22.41;66.59;99375.58;1701756;84;21003;-42
2021/05/17 08:50:02;;;;;;;5.15;2.60;;;;;;;22.38;67.35;99370.92;1701742;84;21100;-41
2021/05/17 08:52:29;;;;;;;7.53;2.45;;;;;;;22.23;67.38;99360.36;1701618;84;21506;-42
2021/05/17 08:54:55;;;;;;;8.65;2.37;;;;;;;22.23;66.48;99374.84;1701808;84;21606;-42
2021/05/17 08:57:23;;;;;;;7.10;2.20;;;;;;;22.06;65.94;99367.05;1701746;84;21066;-41
2021/05/17 08:59:50;;;;;;;8.30;2.52;;;;;;;22.04;65.84;99371.13;1701922;84;21003;-42
2021/05/17 09:02:17;;;;;;;3.85;2.10;;;;;;;22.12;63.94;99381.52;1681516;84;21034;-42
2021/05/17 09:05:23;;;;;;;6.95;2.12;;;;;;;22.13;65.58;99376.60;1767685;81;20927;-42
2021/05/17 09:07:58;;;;;;;3.83;2.10;;;;;;;22.29;64.53;99382.73;1701642;84;21456;-42
2021/05/17 09:10:30;;;;;;;5.00;1.98;;;;;;;22.53;62.73;99381.13;1767855;81;21610;-42
2021/05/17 09:13:15;;;;;;;3.67;2.20;;;;;;;22.64;62.29;99378.42;1767695;81;20963;-42
2021/05/17 09:15:49;;;;;;;;;;;;;;;22.84;61.20;99388.20;1770375;81;21660;-42
2021/05/17 09:18:27;;;;;;;8.25;2.37;;;;;;;22.87;59.80;99395.84;1767606;81;20534;-42
2021/05/17 09:20:55;;;;;;;5.22;2.20;;;;;;;22.81;61.30;99409.08;1701835;84;21034;-42
2021/05/17 09:23:35;;;;;;;4.83;2.15;;;;;;;23.07;60.72;99404.17;1701732;84;21636;-42
2021/05/17 09:26:11;;;;;;;3.27;2.00;;;;;;;23.22;59.86;99407.73;1700218;84;21042;-42
2021/05/17 09:28:45;;;;;;;4.33;1.90;;;;;;;23.27;61.06;99406.05;1701770;84;21734;-42
2021/05/17 09:31:23;;;;;;;5.90;2.33;;;;;;;23.32;60.73;99403.83;1701813;84;21620;-42
2021/05/17 09:33:56;;;;;;;6.17;2.33;;;;;;;23.14;60.12;99409.75;1701033;83;20999;-42
2021/05/17 09:36:33;;;;;;;4.07;2.53;;;;;;;23.10;60.45;99414.45;1767930;81;20991;-42
2021/05/17 09:39:11;;;;;;;5.72;2.52;;;;;;;23.02;60.69;99414.30;1701925;84;20955;-42
2021/05/17 09:41:55;;;;;;;9.88;3.02;;;;;;;22.56;61.45;99409.87;1767714;81;21034;-42
2021/05/17 09:44:23;;;;;;;4.35;2.15;;;;;;;22.15;61.99;99409.75;1701473;84;20995;-42
2021/05/17 09:47:13;;;;;;;6.05;2.40;;;;;;;22.02;63.13;99408.62;1701666;84;20891;-42
2021/05/17 09:49:49;;;;;;;5.47;2.45;;;;;;;22.32;63.51;99409.64;1701554;83;21022;-42
2021/05/17 09:52:25;;;;;;;6.85;2.20;;;;;;;22.57;63.65;99401.48;1701724;84;20979;-42
2021/05/17 09:55:06;;;;;;;11.60;2.42;;;;;;;22.96;62.65;99407.75;1701812;84;21112;-42
2021/05/17 09:57:38;;;;;;;7.75;2.72;;;;;;;23.49;61.64;99418.16;1701679;84;20915;-42
2021/05/17 10:00:31;;;;;;;6.75;2.30;;;;;;;23.86;60.65;99412.21;1767808;81;20939;-42
2021/05/17 10:02:58;;;;;;;4.50;2.12;;;;;;;23.86;60.30;99429.38;1767771;81;21030;-42
2021/05/17 10:05:34;;;;;;;13.98;2.52;;;;;;;23.85;60.12;99430.36;1767651;81;21550;-42
2021/05/17 10:08:07;;;;;;;5.55;2.35;;;;;;;23.93;58.71;99430.98;1704468;84;21721;-42
2021/05/17 10:10:34;;;;;;;11.00;2.40;;;;;;;23.74;58.55;99433.97;1709460;84;21606;-42
2021/05/17 10:13:03;;;;;;;6.72;2.02;;;;;;;23.67;58.87;99430.22;1709485;84;20970;-43
2021/05/17 10:15:33;;;;;;;3.50;1.90;;;;;;;23.68;58.79;99434.53;1709640;83;21034;-42
2021/05/17 10:18:00;;;;;;;3.08;1.80;;;;;;;24.04;57.65;99430.86;1709654;84;21002;-42
2021/05/17 10:20:28;;;;;;;5.08;2.33;;;;;;;24.21;55.79;99446.48;1709597;83;21099;-42
2021/05/17 10:22:56;;;;;;;8.53;2.12;;;;;;;24.20;56.40;99451.42;1709423;84;21014;-42
2021/05/17 10:25:30;;;;;;;27.00;2.83;;;;;;;24.46;56.55;99446.04;1775912;80;20903;-42
2021/05/17 10:28:10;;;;;;;6.60;1.95;;;;;;;24.78;55.70;99447.50;1775900;80;20879;-43
2021/05/17 10:30:37;;;;;;;4.37;2.00;;;;;;;24.97;53.84;99439.95;1748407;80;21423;-43
2021/05/17 10:33:10;;;;;;;5.20;1.82;;;;;;;24.88;54.81;99439.02;1709782;83;20999;-42
2021/05/17 10:35:45;;;;;;;2.00;1.72;;;;;;;24.91;53.81;99444.52;1709743;83;21053;-43
2021/05/17 10:38:44;;;;;;;12.13;1.92;;;;;;;24.86;53.70;99442.30;1709946;83;21041;-42
2021/05/17 10:44:12;;;;;;;12.30;2.47;;;;;;;25.51;51.69;99448.05;1709763;83;20994;-42
2021/05/17 10:46:42;;;;;;;12.98;3.10;;;;;;;25.56;50.95;99450.73;1701226;84;21103;-42
2021/05/17 10:49:33;;;;;;;9.63;3.10;;;;;;;25.20;51.56;99451.48;1705996;84;20931;-42
2021/05/17 10:52:11;;;;;;;5.08;2.90;;;;;;;24.90;52.60;99442.38;1712954;83;20971;-42
2021/05/17 10:54:43;;;;;;;5.20;1.90;;;;;;;24.86;54.39;99450.23;1776055;80;21022;-42
2021/05/17 10:57:34;;;;;;;2.05;1.60;;;;;;;25.22;52.87;99449.05;1775947;80;21049;-42
2021/05/17 11:02:43;;;;;;;16.82;2.50;;;;;;;25.94;51.65;99455.41;1776176;80;20915;-42
2021/05/17 11:05:20;;;;;;;12.07;2.20;;;;;;;25.83;50.14;99440.58;1775994;80;20859;-43
2021/05/17 11:07:55;;;;;;;9.10;2.02;;;;;;;25.45;51.66;99444.66;1774780;80;20998;-43
2021/05/17 11:10:25;;;;;;;4.62;1.80;;;;;;;25.33;53.60;99452.45;1763479;81;20979;-43
2021/05/17 11:13:14;;;;;;;8.20;2.08;;;;;;;25.18;51.28;99455.62;1685884;84;21026;-43
2021/05/17 11:16:01;;;;;;;5.87;1.80;;;;;;;24.71;52.32;99460.43;1763272;81;20911;-42
2021/05/17 11:18:43;;;;;;;16.30;2.35;;;;;;;24.35;54.13;99457.11;1685948;84;21015;-42
2021/05/17 11:21:28;;;;;;;9.38;1.80;;;;;;;24.75;53.90;99454.41;1750110;81;20915;-42
2021/05/17 11:24:05;;;;;;;19.98;2.10;;;;;;;24.96;53.56;99451.05;1763350;81;21002;-42
2021/05/17 11:26:35;;;;;;;4.05;1.92;;;;;;;25.01;52.53;99445.33;1763568;81;21075;-42
2021/05/17 11:29:03;;;;;;;3.12;1.62;;;;;;;24.65;52.55;99447.79;1760215;81;21587;-42
2021/05/17 11:31:41;;;;;;;12.82;1.90;;;;;;;24.13;53.59;99456.12;1685838;83;20935;-42
2021/05/17 11:34:16;;;;;;;4.62;1.45;;;;;;;23.87;54.36;99464.08;1735515;81;20927;-42
2021/05/17 11:36:52;;;;;;;2.20;1.35;;;;;;;23.84;54.82;99465.67;1762849;81;20931;-43
2021/05/17 11:39:23;;;;;;;7.55;1.80;;;;;;;23.85;54.99;99467.34;1685732;85;21077;-42
2021/05/17 11:42:02;;;;;;;8.88;1.75;;;;;;;23.92;56.12;99459.70;1763476;81;21469;-42
2021/05/17 11:47:28;;;;;;;2.25;1.42;;;;;;;24.01;54.85;99474.75;1763219;80;21015;-42
2021/05/17 11:49:55;;;;;;;7.65;1.75;;;;;;;24.02;55.21;99476.92;1685616;84;22147;-42
2021/05/17 11:52:25;;;;;;;5.55;1.72;;;;;;;24.45;55.64;99468.17;1763401;81;20983;-43
2021/05/17 11:54:57;;;;;;;14.25;2.05;;;;;;;25.09;53.44;99460.45;1685344;84;20955;-43
2021/05/17 11:57:38;;;;;;;16.20;1.98;;;;;;;25.57;52.18;99461.67;1763393;81;20923;-42
2021/05/17 12:00:16;;;;;;;18.60;1.60;;;;;;;25.63;49.26;99465.05;1685731;85;21022;-42
2021/05/17 12:02:46;;;;;;;8.10;1.25;;;;;;;25.54;49.30;99470.77;1763453;81;20880;-42
2021/05/17 12:05:14;;;;;;;5.22;1.50;;;;;;;25.71;49.24;99470.92;1685813;84;21032;-42
2021/05/17 12:07:46;;;;;;;4.92;1.42;;;;;;;25.67;47.75;99471.73;1763452;81;20916;-43
2021/05/17 12:10:14;;;;;;;3.37;1.20;;;;;;;25.58;49.85;99479.23;1766852;80;21571;-42
2021/05/17 12:12:41;;;;;;;4.42;1.27;;;;;;;25.70;49.35;99473.23;1701821;84;21496;-43